createdAt,value
2018-11-28T01:42:22.266Z,100459.46
2018-11-28T01:45:26.845Z,100466.45
2018-11-28T01:48:31.355Z,100476.13
2018-11-28T01:51:35.842Z,100463.16
2018-11-28T01:54:40.408Z,100460.70
2018-11-28T01:57:45.007Z,100453.55
2018-11-28T02:00:49.542Z,100458.77
2018-11-28T02:03:54.114Z,100460.93
2018-11-28T02:06:58.646Z,100452.21
2018-11-28T02:10:03.256Z,100448.32
2018-11-28T02:13:07.863Z,100455.97
2018-11-28T02:16:12.558Z,100455.77
2018-11-28T02:19:17.091Z,100452.28
2018-11-28T02:22:21.640Z,100453.24
2018-11-28T02:25:26.240Z,100459.33
2018-11-28T02:28:30.777Z,100452.52
2018-11-28T02:31:35.290Z,100453.84
2018-11-28T02:34:40.000Z,100461.99
2018-11-28T02:37:44.614Z,100452.31
2018-11-28T02:40:49.186Z,100453.61
2018-11-28T02:43:53.700Z,100456.84
2018-11-28T02:46:58.502Z,100455.51
2018-11-28T02:50:03.182Z,100458.16
2018-11-28T02:53:07.741Z,100453.73
2018-11-28T02:56:12.253Z,100452.08
2018-11-28T02:59:16.825Z,100452.38
2018-11-28T03:02:21.353Z,100459.12
2018-11-28T03:05:25.903Z,100463.75
2018-11-28T03:08:30.549Z,100465.08
2018-11-28T03:11:35.199Z,100468.08
2018-11-28T03:14:39.774Z,100464.05
2018-11-28T03:17:44.284Z,100462.65
2018-11-28T03:20:48.921Z,100462.72
2018-11-28T03:23:53.618Z,100467.34
2018-11-28T03:26:58.160Z,100464.98
2018-11-28T03:30:02.766Z,100471.22
2018-11-28T03:33:07.481Z,100472.89
2018-11-28T03:36:12.259Z,100470.81
2018-11-28T03:39:16.879Z,100482.91
2018-11-28T03:42:21.415Z,100475.25
2018-11-28T03:45:26.003Z,100471.64
2018-11-28T03:48:30.615Z,100482.77
2018-11-28T03:51:35.140Z,100476.32
2018-11-28T03:54:39.762Z,100478.32
2018-11-28T03:57:46.171Z,100475.34
2018-11-28T04:00:50.907Z,100480.02
2018-11-28T04:03:55.521Z,100476.21
2018-11-28T04:07:00.081Z,100473.36
2018-11-28T04:10:08.073Z,100471.47
2018-11-28T04:13:12.634Z,100469.80
2018-11-28T04:16:17.186Z,100474.02
2018-11-28T04:19:21.841Z,100477.17
2018-11-28T04:22:26.426Z,100477.97
2018-11-28T04:25:31.007Z,100471.41
2018-11-28T04:28:35.627Z,100474.47
2018-11-28T04:31:40.351Z,100479.50
2018-11-28T04:34:44.946Z,100473.07
2018-11-28T04:37:49.474Z,100479.34
2018-11-28T04:40:54.068Z,100477.27
2018-11-28T04:43:58.680Z,100481.73
2018-11-28T04:47:03.220Z,100477.97
2018-11-28T04:50:09.923Z,100482.09
2018-11-28T04:53:14.386Z,100491.22
2018-11-28T04:56:19.095Z,100484.13
2018-11-28T04:59:23.741Z,100488.83
2018-11-28T05:02:28.502Z,100484.91
2018-11-28T05:05:33.019Z,100482.41
2018-11-28T05:08:37.644Z,100487.08
2018-11-28T05:11:42.346Z,100483.51
2018-11-28T05:14:47.007Z,100478.35
2018-11-28T05:17:57.418Z,100481.93
2018-11-28T05:21:02.149Z,100488.50
2018-11-28T05:24:06.808Z,100492.53
2018-11-28T05:27:11.461Z,100497.96
2018-11-28T05:30:19.330Z,100487.87
2018-11-28T05:33:24.070Z,100486.35
2018-11-28T05:36:28.614Z,100492.91
2018-11-28T05:39:33.246Z,100494.95
2018-11-28T05:42:37.924Z,100503.77
2018-11-28T05:45:42.451Z,100505.01
2018-11-28T05:48:47.021Z,100503.75
2018-11-28T05:51:51.644Z,100495.66
2018-11-28T05:54:56.404Z,100498.97
2018-11-28T05:58:01.054Z,100501.70
2018-11-28T06:01:05.640Z,100503.45
2018-11-28T06:04:10.287Z,100501.87
2018-11-28T06:07:21.640Z,100504.30
2018-11-28T06:10:26.239Z,100510.73
2018-11-28T06:13:30.905Z,100515.80
2018-11-28T06:16:35.969Z,100513.05
2018-11-28T06:19:40.608Z,100511.40
2018-11-28T06:22:45.311Z,100519.52
2018-11-28T06:25:50.004Z,100513.88
2018-11-28T06:28:54.669Z,100514.22
2018-11-28T06:31:59.241Z,100517.72
2018-11-28T06:35:03.757Z,100521.42
2018-11-28T06:38:08.367Z,100526.20
2018-11-28T06:41:12.885Z,100520.26
2018-11-28T06:44:17.641Z,100528.37
2018-11-28T06:47:22.214Z,100530.91
2018-11-28T06:50:26.884Z,100534.66
2018-11-28T06:53:31.432Z,100535.22
2018-11-28T06:56:36.012Z,100536.89
2018-11-28T06:59:40.795Z,100544.39
2018-11-28T07:02:45.562Z,100542.44
2018-11-28T07:05:50.250Z,100545.52
2018-11-28T07:08:54.979Z,100554.45
2018-11-28T07:11:59.525Z,100560.91
2018-11-28T07:15:04.322Z,100559.79
2018-11-28T07:18:25.687Z,100554.39
2018-11-28T07:21:30.415Z,100561.53
2018-11-28T07:24:34.942Z,100566.44
2018-11-28T07:27:44.823Z,100571.69
2018-11-28T07:30:44.194Z,100572.00
2018-11-28T07:33:48.861Z,100579.98
2018-11-28T07:36:53.900Z,100574.66
2018-11-28T07:39:58.529Z,100589.09
2018-11-28T07:43:13.870Z,100590.98
2018-11-28T07:46:18.436Z,100590.28
2018-11-28T07:49:23.166Z,100585.59
2018-11-28T07:52:27.767Z,100590.13
2018-11-28T07:55:32.368Z,100588.59
2018-11-28T07:58:36.919Z,100588.92
2018-11-28T08:01:41.572Z,100581.44
2018-11-28T08:04:46.123Z,100593.24
2018-11-28T08:07:50.729Z,100596.20
2018-11-28T08:10:55.322Z,100587.62
2018-11-28T08:13:59.991Z,100592.12
2018-11-28T08:17:04.699Z,100597.32
2018-11-28T08:20:09.407Z,100589.59
2018-11-28T08:23:13.982Z,100598.61
2018-11-28T08:26:18.525Z,100593.80
2018-11-28T08:29:23.100Z,100599.11
2018-11-28T08:32:27.678Z,100588.59
2018-11-28T08:35:32.211Z,100597.85
2018-11-28T08:38:36.732Z,100603.02
2018-11-28T08:41:41.362Z,100597.86
2018-11-28T08:44:46.098Z,100598.52
2018-11-28T08:47:52.530Z,100601.98
2018-11-28T08:50:57.236Z,100612.78
2018-11-28T08:54:01.796Z,100607.53
2018-11-28T08:57:06.541Z,100619.60
2018-11-28T09:00:16.903Z,100609.48
2018-11-28T09:03:21.429Z,100607.42
2018-11-28T09:06:26.008Z,100606.66
2018-11-28T09:09:30.684Z,100603.13
2018-11-28T09:12:35.333Z,100615.90
2018-11-28T09:15:40.578Z,100611.04
2018-11-28T09:18:47.793Z,100621.64
2018-11-28T09:21:52.364Z,100626.42
2018-11-28T09:24:56.905Z,100626.55
2018-11-28T09:28:01.664Z,100635.16
2018-11-28T09:31:06.249Z,100630.09
2018-11-28T09:34:10.905Z,100629.09
2018-11-28T09:37:15.466Z,100630.42
2018-11-28T09:40:25.667Z,100625.44
2018-11-28T09:43:30.298Z,100625.70
2018-11-28T09:46:34.969Z,100626.53
2018-11-28T09:49:39.487Z,100629.20
2018-11-28T09:52:44.111Z,100621.10
2018-11-28T09:55:48.582Z,100618.80
2018-11-28T09:58:53.133Z,100619.11
2018-11-28T10:01:57.777Z,100622.37
2018-11-28T10:05:03.015Z,100625.19
2018-11-28T10:08:07.029Z,100624.30
2018-11-28T10:11:12.129Z,100624.60
2018-11-28T10:14:16.661Z,100620.37
2018-11-28T10:17:21.299Z,100619.77
2018-11-28T10:20:25.793Z,100626.03
2018-11-28T10:23:30.328Z,100622.34
2018-11-28T10:26:34.899Z,100609.47
2018-11-28T10:29:39.421Z,100605.30
2018-11-28T10:32:44.033Z,100610.92
2018-11-28T10:35:48.629Z,100596.89
2018-11-28T10:38:53.194Z,100589.23
2018-11-28T10:41:57.822Z,100599.80
2018-11-28T10:45:02.349Z,100599.24
2018-11-28T10:48:08.806Z,100598.86
2018-11-28T10:51:13.387Z,100589.86
2018-11-28T10:54:17.955Z,100588.12
2018-11-28T10:57:22.467Z,100590.05
2018-11-28T11:00:34.937Z,100584.21
2018-11-28T11:03:44.890Z,100585.22
2018-11-28T11:06:54.756Z,100586.51
2018-11-28T11:10:04.676Z,100584.58
2018-11-28T11:13:14.440Z,100573.58
2018-11-28T11:16:24.288Z,100580.01
2018-11-28T11:19:28.887Z,100570.28
2018-11-28T11:22:33.857Z,100570.02
2018-11-28T11:25:38.784Z,100569.05
2018-11-28T11:28:43.471Z,100568.09
2018-11-28T11:31:48.070Z,100562.70
2018-11-28T11:34:52.701Z,100554.96
2018-11-28T11:37:57.316Z,100557.72
2018-11-28T11:41:01.813Z,100559.80
2018-11-28T11:44:06.496Z,100554.82
2018-11-28T11:47:11.128Z,100551.64
2018-11-28T11:50:18.191Z,100555.69
2018-11-28T11:53:22.850Z,100550.23
2018-11-28T11:56:27.436Z,100547.39
2018-11-28T11:59:32.029Z,100543.80
2018-11-28T12:02:36.553Z,100541.33
2018-11-28T12:05:46.518Z,100536.02
2018-11-28T12:08:51.006Z,100536.20
2018-11-28T12:11:55.529Z,100529.16
2018-11-28T12:15:00.265Z,100528.73
2018-11-28T12:18:05.008Z,100529.72
2018-11-28T12:21:09.576Z,100536.55
2018-11-28T12:24:14.205Z,100531.92
2018-11-28T12:27:18.774Z,100527.70
2018-11-28T12:30:23.510Z,100529.30
2018-11-28T12:33:28.195Z,100529.30
2018-11-28T12:36:32.746Z,100521.45
2018-11-28T12:39:38.206Z,100522.28
2018-11-28T12:42:45.534Z,100526.62
2018-11-28T12:45:51.461Z,100528.94
2018-11-28T12:48:56.110Z,100527.30
2018-11-28T12:52:00.723Z,100521.25
2018-11-28T12:55:05.519Z,100518.27
2018-11-28T12:58:16.038Z,100517.80
2018-11-28T13:01:20.568Z,100525.13
2018-11-28T13:04:25.389Z,100524.25
2018-11-28T13:07:30.054Z,100520.75
2018-11-28T13:10:36.786Z,100519.56
2018-11-28T13:13:41.357Z,100521.60
2018-11-28T13:16:46.009Z,100518.09
2018-11-28T13:19:50.678Z,100520.94
2018-11-28T13:22:56.539Z,100521.27
2018-11-28T13:26:01.101Z,100511.91
2018-11-28T13:29:06.472Z,100513.25
2018-11-28T13:32:11.286Z,100510.05
2018-11-28T13:35:22.305Z,100505.87
2018-11-28T13:38:26.943Z,100506.22
2018-11-28T13:41:31.528Z,100497.70
2018-11-28T13:44:36.197Z,100508.19
2018-11-28T13:47:41.319Z,100504.84
2018-11-28T13:50:46.537Z,100505.84
2018-11-28T13:53:51.216Z,100501.70
2018-11-28T13:56:58.720Z,100498.50
2018-11-28T14:00:02.479Z,100505.53
2018-11-28T14:03:07.326Z,100503.17
2018-11-28T14:06:12.061Z,100505.79
2018-11-28T14:09:17.618Z,100502.94
2018-11-28T14:12:22.518Z,100503.77
2018-11-28T14:15:27.287Z,100498.25
2018-11-28T14:18:32.052Z,100497.06
2018-11-28T14:21:36.829Z,100504.89
2018-11-28T14:24:41.470Z,100504.53
2018-11-28T14:27:46.326Z,100496.05
2018-11-28T14:30:51.250Z,100507.34
2018-11-28T14:33:56.039Z,100503.38
2018-11-28T14:37:00.637Z,100507.56
2018-11-28T14:40:08.913Z,100504.03
2018-11-28T14:43:13.880Z,100510.20
2018-11-28T14:46:18.510Z,100505.69
2018-11-28T14:49:23.232Z,100509.69
2018-11-28T14:52:27.822Z,100502.33
2018-11-28T14:55:36.926Z,100510.34
2018-11-28T14:58:41.748Z,100514.95
2018-11-28T15:01:46.290Z,100512.79
2018-11-28T15:04:51.328Z,100512.60
2018-11-28T15:08:10.683Z,100515.28
2018-11-28T15:11:16.030Z,100515.92
2018-11-28T15:14:20.553Z,100513.25
2018-11-28T15:17:25.391Z,100512.55
2018-11-28T15:20:30.007Z,100511.54
2018-11-28T15:23:34.630Z,100502.14
2018-11-28T15:26:39.345Z,100503.66
2018-11-28T15:29:44.100Z,100497.77
2018-11-28T15:32:48.776Z,100505.91
2018-11-28T15:35:53.553Z,100501.41
2018-11-28T15:38:58.129Z,100504.44
2018-11-28T15:42:02.768Z,100514.38
2018-11-28T15:45:09.331Z,100511.25
2018-11-28T15:48:14.343Z,100515.02
2018-11-28T15:51:18.848Z,100519.01
2018-11-28T15:54:23.418Z,100512.34
2018-11-28T15:57:28.031Z,100514.64
2018-11-28T16:00:32.797Z,100514.45
2018-11-28T16:03:37.418Z,100515.21
2018-11-28T16:06:41.998Z,100519.52
2018-11-28T16:09:51.712Z,100521.44
2018-11-28T16:12:56.689Z,100524.03
2018-11-28T16:16:01.491Z,100530.44
2018-11-28T16:19:06.571Z,100530.70
2018-11-28T16:22:11.441Z,100531.01
2018-11-28T16:25:16.291Z,100523.95
2018-11-28T16:28:21.108Z,100520.44
2018-11-28T16:31:25.956Z,100530.66
2018-11-28T16:34:30.658Z,100517.55
2018-11-28T16:37:35.304Z,100509.33
2018-11-28T16:40:40.253Z,100507.19
2018-11-28T16:43:44.853Z,100500.17
2018-11-28T16:46:49.381Z,100492.58
2018-11-28T16:49:53.965Z,100497.14
2018-11-28T16:52:58.635Z,100498.48
2018-11-28T16:56:03.352Z,100508.86
2018-11-28T16:59:08.777Z,100520.76
2018-11-28T17:02:13.505Z,100516.46
2018-11-28T17:05:20.860Z,100513.80
2018-11-28T17:08:25.415Z,100510.22
2018-11-28T17:11:30.183Z,100509.08
2018-11-28T17:14:36.405Z,100506.76
2018-11-28T17:17:47.673Z,100513.34
2018-11-28T17:20:52.230Z,100524.45
2018-11-28T17:23:56.972Z,100522.33
2018-11-28T17:27:01.816Z,100509.44
2018-11-28T17:30:10.939Z,100514.04
2018-11-28T17:33:15.552Z,100507.81
2018-11-28T17:36:20.135Z,100520.97
2018-11-28T17:39:24.708Z,100527.02
2018-11-28T17:42:29.315Z,100528.74
2018-11-28T17:45:34.091Z,100523.33
2018-11-28T17:48:39.259Z,100522.94
2018-11-28T17:51:43.818Z,100522.11
2018-11-28T17:54:48.480Z,100523.72
2018-11-28T17:57:53.064Z,100522.27
2018-11-28T18:00:57.850Z,100518.72
2018-11-28T18:04:02.382Z,100522.52
2018-11-28T18:07:07.558Z,100530.88
2018-11-28T18:10:17.272Z,100533.13
2018-11-28T18:13:21.838Z,100547.83
2018-11-28T18:16:29.500Z,100551.30
2018-11-28T18:19:31.367Z,100555.69
2018-11-28T18:22:35.878Z,100551.22
2018-11-28T18:25:41.599Z,100560.82
2018-11-28T18:28:46.153Z,100572.31
2018-11-28T18:31:50.772Z,100566.67
2018-11-28T18:34:55.290Z,100570.67
2018-11-28T18:37:59.958Z,100567.31
2018-11-28T18:41:08.032Z,100560.95
2018-11-28T18:44:12.722Z,100559.69
2018-11-28T18:47:17.294Z,100562.87
2018-11-28T18:50:22.015Z,100553.22
2018-11-28T18:53:26.598Z,100546.10
2018-11-28T18:56:31.216Z,100549.77
2018-11-28T18:59:35.753Z,100558.19
2018-11-28T19:02:40.897Z,100567.17
2018-11-28T19:05:45.442Z,100561.65
2018-11-28T19:08:50.159Z,100559.89
2018-11-28T19:11:54.807Z,100568.91
2018-11-28T19:14:59.442Z,100576.54
2018-11-28T19:18:04.130Z,100583.36
2018-11-28T19:21:08.900Z,100584.89
2018-11-28T19:24:13.511Z,100574.88
2018-11-28T19:27:18.107Z,100584.12
2018-11-28T19:30:36.018Z,100582.59
2018-11-28T19:33:40.772Z,100583.88
2018-11-28T19:36:45.426Z,100574.23
2018-11-28T19:39:50.068Z,100571.73
2018-11-28T19:42:54.802Z,100574.90
2018-11-28T19:45:59.744Z,100573.44
2018-11-28T19:49:04.377Z,100570.77
2018-11-28T19:52:09.141Z,100570.07
2018-11-28T19:55:13.895Z,100565.98
2018-11-28T19:58:18.682Z,100555.49
2018-11-28T20:01:23.385Z,100562.67
2018-11-28T20:04:28.061Z,100559.69
2018-11-28T20:07:32.774Z,100567.00
2018-11-28T20:10:37.584Z,100562.90
2018-11-28T20:13:43.711Z,100559.91
2018-11-28T20:16:53.380Z,100560.05
2018-11-28T20:19:59.270Z,100564.70
2018-11-28T20:23:04.064Z,100567.80
2018-11-28T20:26:08.819Z,100564.14
2018-11-28T20:29:14.446Z,100573.06
2018-11-28T20:32:19.133Z,100573.77
2018-11-28T20:35:23.939Z,100566.97
2018-11-28T20:38:33.068Z,100567.00
2018-11-28T20:41:37.889Z,100569.46
2018-11-28T20:44:42.609Z,100569.77
2018-11-28T20:47:47.384Z,100578.17
2018-11-28T20:50:53.001Z,100584.16
2018-11-28T20:53:57.619Z,100582.53
2018-11-28T20:57:02.231Z,100577.41
2018-11-28T21:00:11.742Z,100579.35
2018-11-28T21:03:16.366Z,100578.17
2018-11-28T21:06:21.076Z,100574.88
2018-11-28T21:09:25.965Z,100573.95
2018-11-28T21:12:30.524Z,100567.98
2018-11-28T21:15:35.059Z,100571.41
2018-11-28T21:18:39.816Z,100578.02
2018-11-28T21:21:44.515Z,100589.09
2018-11-28T21:24:49.089Z,100579.64
2018-11-28T21:27:53.750Z,100569.81
2018-11-28T21:30:58.486Z,100575.69
2018-11-28T21:34:03.152Z,100571.66
2018-11-28T21:37:07.745Z,100561.05
2018-11-28T21:40:13.050Z,100575.45
2018-11-28T21:43:17.612Z,100571.29
2018-11-28T21:46:22.246Z,100570.16
2018-11-28T21:49:28.376Z,100568.92
2018-11-28T21:52:33.076Z,100562.29
2018-11-28T21:55:37.685Z,100564.20
2018-11-28T21:58:42.276Z,100578.19
2018-11-28T22:01:46.903Z,100579.28
2018-11-28T22:04:51.552Z,100576.78
2018-11-28T22:07:56.145Z,100572.98
2018-11-28T22:11:00.695Z,100570.95
2018-11-28T22:14:06.213Z,100574.53
2018-11-28T22:17:10.660Z,100572.91
2018-11-28T22:20:15.955Z,100576.23
2018-11-28T22:23:20.461Z,100576.11
2018-11-28T22:26:24.999Z,100565.73
2018-11-28T22:29:29.717Z,100564.69
2018-11-28T22:32:34.442Z,100560.77
2018-11-28T22:35:39.175Z,100555.16
2018-11-28T22:38:43.928Z,100561.86
2018-11-28T22:41:48.610Z,100568.38
2018-11-28T22:44:53.178Z,100572.13
2018-11-28T22:47:57.694Z,100574.08
2018-11-28T22:51:02.238Z,100568.34
2018-11-28T22:54:06.861Z,100555.20
2018-11-28T22:57:11.448Z,100547.97
2018-11-28T23:00:29.140Z,100541.06
2018-11-28T23:03:33.703Z,100542.98
2018-11-28T23:06:38.305Z,100557.12
2018-11-28T23:09:42.906Z,100564.27
2018-11-28T23:12:47.502Z,100555.70
2018-11-28T23:15:52.022Z,100545.27
2018-11-28T23:18:57.431Z,100555.20
2018-11-28T23:22:01.997Z,100550.42
2018-11-28T23:25:10.724Z,100549.05
2018-11-28T23:28:15.457Z,100544.48
2018-11-28T23:31:19.972Z,100537.42
2018-11-28T23:34:24.589Z,100532.47
2018-11-28T23:37:29.198Z,100529.39
2018-11-28T23:40:33.844Z,100525.98
2018-11-28T23:43:38.539Z,100529.73
2018-11-28T23:46:43.231Z,100525.61
2018-11-28T23:49:47.803Z,100521.86
2018-11-28T23:52:53.863Z,100519.38
2018-11-28T23:55:58.444Z,100519.63
2018-11-28T23:59:03.106Z,100507.78
